createdAt,value
2023-02-17T00:01:37.185Z,7.80
2023-02-17T00:04:05.443Z,7.70
2023-02-17T00:06:34.730Z,7.70
2023-02-17T00:09:02.709Z,7.70
2023-02-17T00:11:30.951Z,7.80
2023-02-17T00:14:00.272Z,7.80
2023-02-17T00:16:29.402Z,7.80
2023-02-17T00:18:59.353Z,7.80
2023-02-17T00:21:30.018Z,7.80
2023-02-17T00:24:00.966Z,7.80
2023-02-17T00:26:29.176Z,7.70
2023-02-17T00:28:58.942Z,7.70
2023-02-17T00:31:27.012Z,7.70
2023-02-17T00:33:55.593Z,7.70
2023-02-17T00:36:24.086Z,7.70
2023-02-17T00:38:52.483Z,7.80
2023-02-17T00:41:21.950Z,7.70
2023-02-17T00:43:50.340Z,7.70
2023-02-17T00:46:19.439Z,7.70
2023-02-17T00:48:47.785Z,7.70
2023-02-17T00:51:16.743Z,7.60
2023-02-17T00:53:45.595Z,7.70
2023-02-17T00:56:14.373Z,7.70
2023-02-17T00:58:43.789Z,7.70
2023-02-17T01:01:13.116Z,7.60
2023-02-17T01:03:42.136Z,7.60
2023-02-17T01:06:12.466Z,7.60
2023-02-17T01:08:40.409Z,7.70
2023-02-17T01:11:08.392Z,7.60
2023-02-17T01:13:36.404Z,7.60
2023-02-17T01:16:06.467Z,7.60
2023-02-17T01:18:34.614Z,7.50
2023-02-17T01:21:02.572Z,7.50
2023-02-17T01:23:30.597Z,7.50
2023-02-17T01:25:58.559Z,7.50
2023-02-17T01:28:26.528Z,7.40
2023-02-17T01:30:54.564Z,7.40
2023-02-17T01:33:24.339Z,7.50
2023-02-17T01:35:52.287Z,7.40
2023-02-17T01:38:20.262Z,7.40
2023-02-17T01:40:49.164Z,7.40
2023-02-17T01:43:18.633Z,7.40
2023-02-17T01:45:52.911Z,7.40
2023-02-17T01:48:26.371Z,7.40
2023-02-17T01:50:57.106Z,7.40
2023-02-17T01:53:30.652Z,7.40
2023-02-17T01:55:59.109Z,7.40
2023-02-17T01:58:28.555Z,7.40
2023-02-17T02:00:58.445Z,7.30
2023-02-17T02:03:31.355Z,7.30
2023-02-17T02:06:00.246Z,7.30
2023-02-17T02:08:31.910Z,7.30
2023-02-17T02:10:59.934Z,7.30
2023-02-17T02:13:27.993Z,7.30
2023-02-17T02:16:02.462Z,7.30
2023-02-17T02:18:43.201Z,7.20
2023-02-17T02:21:45.008Z,7.30
2023-02-17T02:24:22.131Z,7.30
2023-02-17T02:27:32.078Z,7.30
2023-02-17T02:30:37.001Z,7.30
2023-02-17T02:33:13.982Z,7.30
2023-02-17T02:35:51.414Z,7.30
2023-02-17T02:38:25.241Z,7.30
2023-02-17T02:40:58.574Z,7.30
2023-02-17T02:43:27.324Z,7.30
2023-02-17T02:45:55.344Z,7.40
2023-02-17T02:48:24.704Z,7.30
2023-02-17T02:51:26.106Z,7.40
2023-02-17T02:54:19.464Z,7.30
2023-02-17T02:57:23.581Z,7.40
2023-02-17T03:00:05.627Z,7.30
2023-02-17T03:02:44.178Z,7.30
2023-02-17T03:05:18.219Z,7.30
2023-02-17T03:07:50.225Z,7.30
2023-02-17T03:10:18.581Z,7.30
2023-02-17T03:12:46.729Z,7.30
2023-02-17T03:15:20.115Z,7.30
2023-02-17T03:17:48.118Z,7.40
2023-02-17T03:20:18.034Z,7.40
2023-02-17T03:22:48.416Z,7.30
2023-02-17T03:25:17.425Z,7.30
2023-02-17T03:27:45.450Z,7.40
2023-02-17T03:30:14.228Z,7.40
2023-02-17T03:32:42.704Z,7.40
2023-02-17T03:35:10.791Z,7.40
2023-02-17T03:37:40.209Z,7.40
2023-02-17T03:40:09.490Z,7.50
2023-02-17T03:42:37.585Z,7.50
2023-02-17T03:45:06.063Z,7.50
2023-02-17T03:47:34.040Z,7.50
2023-02-17T03:50:01.989Z,7.60
2023-02-17T03:52:29.933Z,7.60
2023-02-17T03:54:59.913Z,7.60
2023-02-17T03:57:27.972Z,7.60
2023-02-17T03:59:55.947Z,7.60
2023-02-17T04:02:24.023Z,7.60
2023-02-17T04:04:52.020Z,7.60
2023-02-17T04:07:19.986Z,7.70
2023-02-17T04:09:47.940Z,7.60
2023-02-17T04:12:17.250Z,7.60
2023-02-17T04:14:45.208Z,7.60
2023-02-17T04:17:13.161Z,7.70
2023-02-17T04:19:41.204Z,7.60
2023-02-17T04:22:09.135Z,7.60
2023-02-17T04:24:37.408Z,7.50
2023-02-17T04:27:06.412Z,7.50
2023-02-17T04:29:36.122Z,7.60
2023-02-17T04:32:04.322Z,7.50
2023-02-17T04:34:32.388Z,7.50
2023-02-17T04:37:00.346Z,7.50
2023-02-17T04:39:28.319Z,7.50
2023-02-17T04:41:56.298Z,7.50
2023-02-17T04:44:24.297Z,7.50
2023-02-17T04:46:53.621Z,7.60
2023-02-17T04:49:21.590Z,7.60
2023-02-17T04:51:49.524Z,7.60
2023-02-17T04:54:17.518Z,7.50
2023-02-17T04:56:45.490Z,7.50
2023-02-17T04:59:13.488Z,7.50
2023-02-17T05:01:41.537Z,7.50
2023-02-17T05:04:10.933Z,7.50
2023-02-17T05:06:38.933Z,7.50
2023-02-17T05:09:13.214Z,7.50
2023-02-17T05:11:41.186Z,7.50
2023-02-17T05:14:09.173Z,7.50
2023-02-17T05:16:37.157Z,7.50
2023-02-17T05:19:05.209Z,7.60
2023-02-17T05:21:34.532Z,7.60
2023-02-17T05:24:02.506Z,7.60
2023-02-17T05:26:30.503Z,7.60
2023-02-17T05:28:58.505Z,7.60
2023-02-17T05:31:26.649Z,7.60
2023-02-17T05:33:55.025Z,7.60
2023-02-17T05:36:23.047Z,7.60
2023-02-17T05:38:52.377Z,7.60
2023-02-17T05:41:26.304Z,7.60
2023-02-17T05:43:54.287Z,7.60
2023-02-17T05:46:22.923Z,7.60
2023-02-17T05:48:50.999Z,7.60
2023-02-17T05:51:18.967Z,7.60
2023-02-17T05:53:46.919Z,7.60
2023-02-17T05:56:17.042Z,7.60
2023-02-17T05:58:45.018Z,7.70
2023-02-17T06:01:13.678Z,7.70
2023-02-17T06:03:41.653Z,7.70
2023-02-17T06:06:10.039Z,7.70
2023-02-17T06:08:38.161Z,7.70
2023-02-17T06:11:06.326Z,7.70
2023-02-17T06:13:35.673Z,7.70
2023-02-17T06:16:04.115Z,7.70
2023-02-17T06:18:32.192Z,7.70
2023-02-17T06:21:00.185Z,7.80
2023-02-17T06:23:28.925Z,7.80
2023-02-17T06:25:57.371Z,7.80
2023-02-17T06:28:25.460Z,7.80
2023-02-17T06:30:54.823Z,7.80
2023-02-17T06:33:22.791Z,7.80
2023-02-17T06:35:51.301Z,7.80
2023-02-17T06:38:19.777Z,7.80
2023-02-17T06:40:47.923Z,7.80
2023-02-17T06:43:15.891Z,7.80
2023-02-17T06:45:43.909Z,7.80
2023-02-17T06:48:13.269Z,7.80
2023-02-17T06:50:41.335Z,7.80
2023-02-17T06:53:09.516Z,7.80
2023-02-17T06:55:39.017Z,7.80
2023-02-17T06:58:07.313Z,7.80
2023-02-17T07:00:35.654Z,7.80
2023-02-17T07:03:04.256Z,7.80
2023-02-17T07:05:36.300Z,7.90
2023-02-17T07:08:04.522Z,7.90
2023-02-17T07:10:32.563Z,7.90
2023-02-17T07:13:00.971Z,7.90
2023-02-17T07:15:29.030Z,7.90
2023-02-17T07:17:57.087Z,7.90
2023-02-17T07:20:25.042Z,7.90
2023-02-17T07:22:54.390Z,7.90
2023-02-17T07:25:22.347Z,7.90
2023-02-17T07:27:50.330Z,8.00
2023-02-17T07:30:18.757Z,8.00
2023-02-17T07:32:46.782Z,8.00
2023-02-17T07:35:14.784Z,8.10
2023-02-17T07:37:42.778Z,8.10
2023-02-17T07:40:13.145Z,8.10
2023-02-17T07:42:41.119Z,8.10
2023-02-17T07:45:09.607Z,8.20
2023-02-17T07:47:37.548Z,8.20
2023-02-17T07:50:06.226Z,8.20
2023-02-17T07:52:34.348Z,8.20
2023-02-17T07:55:02.475Z,8.20
2023-02-17T07:57:31.942Z,8.30
2023-02-17T07:59:59.909Z,8.30
2023-02-17T08:02:27.918Z,8.30
2023-02-17T08:04:55.897Z,8.40
2023-02-17T08:07:23.863Z,8.40
2023-02-17T08:10:09.149Z,8.50
2023-02-17T08:13:04.280Z,8.50
2023-02-17T08:15:34.310Z,8.60
2023-02-17T08:18:04.852Z,8.70
2023-02-17T08:20:35.140Z,8.70
2023-02-17T08:23:04.112Z,8.70
2023-02-17T08:25:33.584Z,8.80
2023-02-17T08:28:03.268Z,8.90
2023-02-17T08:30:31.325Z,8.90
2023-02-17T08:32:59.336Z,9.00
2023-02-17T08:35:27.361Z,9.10
2023-02-17T08:37:55.361Z,9.10
2023-02-17T08:40:23.386Z,9.20
2023-02-17T08:42:51.611Z,9.20
2023-02-17T08:45:21.023Z,9.20
2023-02-17T08:47:51.013Z,9.20
2023-02-17T08:50:21.120Z,9.30
2023-02-17T08:52:49.107Z,9.30
2023-02-17T08:55:19.035Z,9.40
2023-02-17T08:57:47.497Z,9.40
2023-02-17T09:00:16.863Z,9.40
2023-02-17T09:02:46.224Z,9.40
2023-02-17T09:05:15.266Z,9.50
2023-02-17T09:07:43.314Z,9.50
2023-02-17T09:10:12.899Z,9.50
2023-02-17T09:12:41.668Z,9.50
2023-02-17T09:15:10.654Z,9.50
2023-02-17T09:17:41.380Z,9.50
2023-02-17T09:20:23.885Z,9.50
2023-02-17T09:22:52.761Z,9.60
2023-02-17T09:25:20.781Z,9.60
2023-02-17T09:27:48.860Z,9.70
2023-02-17T09:30:17.267Z,9.70
2023-02-17T09:32:45.553Z,9.70
2023-02-17T09:35:16.053Z,9.70
2023-02-17T09:37:44.331Z,9.70
2023-02-17T09:40:18.473Z,9.70
2023-02-17T09:42:46.855Z,9.70
2023-02-17T09:45:19.874Z,9.70
2023-02-17T09:47:51.938Z,9.70
2023-02-17T09:50:25.840Z,9.70
2023-02-17T09:52:59.775Z,9.70
2023-02-17T09:55:33.118Z,9.80
2023-02-17T09:58:05.906Z,9.80
2023-02-17T10:00:36.386Z,9.70
2023-02-17T10:03:13.701Z,9.80
2023-02-17T10:05:47.895Z,9.80
2023-02-17T10:08:20.423Z,9.80
2023-02-17T10:10:54.418Z,9.80
2023-02-17T10:13:25.866Z,9.80
2023-02-17T10:15:56.202Z,9.80
2023-02-17T10:18:32.597Z,9.90
2023-02-17T10:21:07.480Z,9.90
2023-02-17T10:23:36.377Z,10.00
2023-02-17T10:26:17.350Z,10.00
2023-02-17T10:28:52.453Z,10.00
2023-02-17T10:31:36.500Z,10.00
2023-02-17T10:34:06.649Z,10.00
2023-02-17T10:36:48.167Z,10.10
2023-02-17T10:39:20.601Z,10.00
2023-02-17T10:41:52.583Z,10.00
2023-02-17T10:44:26.152Z,10.00
2023-02-17T10:46:55.555Z,10.00
2023-02-17T10:49:28.054Z,10.00
2023-02-17T10:52:02.047Z,9.90
2023-02-17T10:54:35.371Z,9.90
2023-02-17T10:57:06.709Z,9.90
2023-02-17T10:59:40.239Z,9.90
2023-02-17T11:02:18.305Z,9.90
2023-02-17T11:04:48.965Z,9.90
2023-02-17T11:07:21.423Z,9.90
2023-02-17T11:09:52.775Z,9.80
2023-02-17T11:12:25.989Z,9.90
2023-02-17T11:14:56.650Z,9.90
2023-02-17T11:17:30.013Z,9.90
2023-02-17T11:20:03.969Z,10.00
2023-02-17T11:22:37.148Z,10.00
2023-02-17T11:25:08.458Z,10.00
2023-02-17T11:27:36.481Z,10.00
2023-02-17T11:30:10.942Z,10.10
2023-02-17T11:32:39.368Z,10.10
2023-02-17T11:35:25.774Z,10.20
2023-02-17T11:38:02.319Z,10.30
2023-02-17T11:40:32.398Z,10.30
2023-02-17T11:43:02.336Z,10.40
2023-02-17T11:45:37.722Z,10.40
2023-02-17T11:48:27.514Z,10.50
2023-02-17T11:51:00.117Z,10.60
2023-02-17T11:53:47.770Z,10.60
2023-02-17T11:56:18.626Z,10.70
2023-02-17T11:59:05.597Z,10.70
2023-02-17T12:01:47.673Z,10.80
2023-02-17T12:04:25.849Z,10.80
2023-02-17T12:07:07.801Z,10.90
2023-02-17T12:09:47.200Z,10.90
2023-02-17T12:12:23.566Z,10.90
2023-02-17T12:15:04.026Z,11.00
2023-02-17T12:17:44.590Z,11.00
2023-02-17T12:20:32.686Z,11.10
2023-02-17T12:23:14.960Z,11.10
2023-02-17T12:25:50.636Z,11.10
2023-02-17T12:28:48.825Z,11.20
2023-02-17T12:31:29.588Z,11.20
2023-02-17T12:34:03.729Z,11.30
2023-02-17T12:36:34.917Z,11.30
2023-02-17T12:39:11.235Z,11.30
2023-02-17T12:41:45.190Z,11.30
2023-02-17T12:44:18.611Z,11.40
2023-02-17T12:46:51.467Z,11.50
2023-02-17T12:49:25.316Z,11.50
2023-02-17T12:51:56.929Z,11.50
2023-02-17T12:54:28.667Z,11.50
2023-02-17T12:57:12.923Z,11.60
2023-02-17T12:59:42.485Z,11.50
2023-02-17T13:02:14.491Z,11.50
2023-02-17T13:04:44.395Z,11.50
2023-02-17T13:07:25.402Z,11.60
2023-02-17T13:09:56.335Z,11.60
2023-02-17T13:12:39.066Z,11.60
2023-02-17T13:15:25.896Z,11.70
2023-02-17T13:17:56.098Z,11.70
2023-02-17T13:20:38.212Z,11.70
2023-02-17T13:23:09.521Z,11.70
2023-02-17T13:25:38.319Z,11.70
2023-02-17T13:28:34.388Z,11.70
2023-02-17T13:31:14.925Z,11.80
2023-02-17T13:33:49.002Z,11.80
2023-02-17T13:36:20.920Z,11.90
2023-02-17T13:39:01.685Z,11.80
2023-02-17T13:41:34.514Z,11.80
2023-02-17T13:44:27.447Z,11.90
2023-02-17T13:46:59.748Z,11.90
2023-02-17T13:49:32.923Z,12.00
2023-02-17T13:52:18.824Z,12.00
2023-02-17T13:54:54.188Z,12.00
2023-02-17T13:57:27.175Z,12.00
2023-02-17T14:00:07.157Z,12.10
2023-02-17T14:02:38.160Z,12.10
2023-02-17T14:05:18.864Z,12.10
2023-02-17T14:07:48.435Z,12.10
2023-02-17T14:10:26.032Z,12.10
2023-02-17T14:12:55.646Z,12.20
2023-02-17T14:15:27.931Z,12.30
2023-02-17T14:17:56.766Z,12.30
2023-02-17T14:20:30.290Z,12.40
2023-02-17T14:23:04.801Z,12.40
2023-02-17T14:25:35.525Z,12.40
2023-02-17T14:28:03.863Z,12.40
2023-02-17T14:30:35.974Z,12.50
2023-02-17T14:33:06.247Z,12.60
2023-02-17T14:35:35.483Z,12.60
2023-02-17T14:38:20.772Z,12.60
2023-02-17T14:40:48.846Z,12.50
2023-02-17T14:43:16.904Z,12.60
2023-02-17T14:45:46.502Z,12.60
2023-02-17T14:48:14.537Z,12.60
2023-02-17T14:50:44.196Z,12.60
2023-02-17T14:53:17.635Z,12.60
2023-02-17T14:55:49.267Z,12.50
2023-02-17T14:58:21.089Z,12.50
2023-02-17T15:00:51.600Z,12.60
2023-02-17T15:03:19.963Z,12.60
2023-02-17T15:05:48.037Z,12.60
2023-02-17T15:08:18.540Z,12.60
2023-02-17T15:10:46.908Z,12.60
2023-02-17T15:13:17.144Z,12.60
2023-02-17T15:15:47.522Z,12.60
2023-02-17T15:18:19.336Z,12.70
2023-02-17T15:20:49.574Z,12.60
2023-02-17T15:23:19.816Z,12.70
2023-02-17T15:25:48.683Z,12.70
2023-02-17T15:28:18.928Z,12.70
2023-02-17T15:30:51.378Z,12.70
2023-02-17T15:33:22.367Z,12.80
2023-02-17T15:35:53.490Z,12.80
2023-02-17T15:38:22.433Z,12.80
2023-02-17T15:40:50.549Z,12.90
2023-02-17T15:43:20.671Z,12.90
2023-02-17T15:45:48.700Z,12.90
2023-02-17T15:48:25.234Z,12.90
2023-02-17T15:50:53.499Z,12.90
2023-02-17T15:53:21.584Z,12.90
2023-02-17T15:55:50.189Z,12.90
2023-02-17T15:58:20.507Z,12.90
2023-02-17T16:00:50.242Z,12.90
2023-02-17T16:03:18.775Z,12.90
2023-02-17T16:05:51.349Z,13.00
2023-02-17T16:08:19.376Z,13.00
2023-02-17T16:10:50.393Z,13.00
2023-02-17T16:13:20.080Z,13.00
2023-02-17T16:15:51.221Z,13.10
2023-02-17T16:18:23.404Z,13.10
2023-02-17T16:20:53.137Z,13.00
2023-02-17T16:23:21.248Z,13.10
2023-02-17T16:25:50.819Z,13.00
2023-02-17T16:28:20.996Z,13.00
2023-02-17T16:30:49.823Z,13.00
2023-02-17T16:33:18.604Z,13.00
2023-02-17T16:35:46.626Z,13.00
2023-02-17T16:38:19.556Z,12.90
2023-02-17T16:40:51.280Z,12.80
2023-02-17T16:43:21.765Z,12.60
2023-02-17T16:45:53.914Z,12.40
2023-02-17T16:48:23.886Z,12.30
2023-02-17T16:50:52.180Z,12.20
2023-02-17T16:53:22.339Z,12.10
2023-02-17T16:55:50.782Z,12.00
2023-02-17T16:58:21.273Z,12.00
2023-02-17T17:00:51.425Z,11.90
2023-02-17T17:03:22.063Z,11.80
2023-02-17T17:05:51.124Z,11.80
2023-02-17T17:08:22.111Z,11.70
2023-02-17T17:10:50.424Z,11.70
2023-02-17T17:13:19.248Z,11.70
2023-02-17T17:15:47.587Z,11.70
2023-02-17T17:18:21.040Z,11.70
2023-02-17T17:20:49.364Z,11.70
2023-02-17T17:23:18.739Z,11.80
2023-02-17T17:25:48.592Z,11.80
2023-02-17T17:28:19.252Z,11.80
2023-02-17T17:30:48.129Z,11.80
2023-02-17T17:33:16.442Z,11.90
2023-02-17T17:35:44.514Z,11.90
2023-02-17T17:38:15.528Z,11.90
2023-02-17T17:40:49.175Z,11.90
2023-02-17T17:43:20.406Z,12.00
2023-02-17T17:45:48.538Z,11.90
2023-02-17T17:48:17.913Z,11.90
2023-02-17T17:50:46.102Z,11.90
2023-02-17T17:53:14.119Z,11.90
2023-02-17T17:55:42.093Z,11.90
2023-02-17T17:58:10.104Z,11.90
2023-02-17T18:00:39.450Z,11.90
2023-02-17T18:03:07.434Z,11.90
2023-02-17T18:05:37.277Z,12.00
2023-02-17T18:08:06.388Z,12.00
2023-02-17T18:10:34.560Z,12.00
2023-02-17T18:13:02.962Z,12.00
2023-02-17T18:15:30.986Z,12.00
2023-02-17T18:18:00.394Z,12.00
2023-02-17T18:20:28.490Z,12.00
2023-02-17T18:22:56.465Z,12.00
2023-02-17T18:25:25.150Z,12.00
2023-02-17T18:27:53.171Z,12.00
2023-02-17T18:30:23.464Z,12.00
2023-02-17T18:32:52.030Z,12.00
2023-02-17T18:35:22.154Z,11.90
2023-02-17T18:37:50.256Z,12.00
2023-02-17T18:40:20.409Z,11.90
2023-02-17T18:42:48.697Z,11.90
2023-02-17T18:45:17.538Z,11.90
2023-02-17T18:47:46.262Z,11.90
2023-02-17T18:50:15.598Z,11.90
2023-02-17T18:52:45.465Z,11.90
2023-02-17T18:55:14.426Z,11.90
2023-02-17T18:57:44.838Z,11.90
2023-02-17T19:00:15.110Z,11.80
2023-02-17T19:02:43.183Z,11.80
2023-02-17T19:05:13.507Z,11.90
2023-02-17T19:07:41.493Z,11.80
2023-02-17T19:10:12.417Z,11.80
2023-02-17T19:12:40.395Z,11.80
2023-02-17T19:15:09.070Z,11.80
2023-02-17T19:17:37.176Z,11.80
2023-02-17T19:20:05.467Z,11.70
2023-02-17T19:22:36.357Z,11.80
2023-02-17T19:25:05.033Z,11.80
2023-02-17T19:27:34.381Z,11.90
2023-02-17T19:30:02.496Z,11.90
2023-02-17T19:32:30.501Z,11.90
2023-02-17T19:34:58.514Z,11.90
2023-02-17T19:37:26.455Z,11.90
2023-02-17T19:39:54.735Z,11.90
2023-02-17T19:42:22.712Z,11.90
2023-02-17T19:44:52.073Z,11.90
2023-02-17T19:47:20.098Z,11.90
2023-02-17T19:49:48.056Z,11.90
2023-02-17T19:52:17.918Z,11.90
2023-02-17T19:54:45.859Z,11.90
2023-02-17T19:57:17.271Z,11.80
2023-02-17T19:59:45.630Z,11.80
2023-02-17T20:02:16.298Z,11.70
2023-02-17T20:04:45.616Z,11.60
2023-02-17T20:07:13.677Z,11.50
2023-02-17T20:09:41.624Z,11.30
2023-02-17T20:12:10.771Z,10.90
2023-02-17T20:14:38.798Z,10.60
2023-02-17T20:17:06.815Z,10.40
2023-02-17T20:19:38.428Z,10.30
2023-02-17T20:22:06.522Z,10.10
2023-02-17T20:24:34.864Z,10.10
2023-02-17T20:27:03.090Z,10.00
2023-02-17T20:29:31.118Z,9.90
2023-02-17T20:31:59.219Z,9.90
2023-02-17T20:34:30.550Z,9.80
2023-02-17T20:37:00.672Z,9.80
2023-02-17T20:39:28.852Z,9.80
2023-02-17T20:41:57.525Z,9.80
2023-02-17T20:44:27.896Z,9.80
2023-02-17T20:46:56.725Z,9.70
2023-02-17T20:49:25.293Z,9.70
2023-02-17T20:51:53.822Z,9.70
2023-02-17T20:54:25.410Z,9.70
2023-02-17T20:56:53.754Z,9.70
2023-02-17T20:59:21.763Z,9.70
2023-02-17T21:01:49.872Z,9.70
2023-02-17T21:04:18.292Z,9.70
2023-02-17T21:06:47.385Z,9.70
2023-02-17T21:09:18.506Z,9.70
2023-02-17T21:11:48.053Z,9.70
2023-02-17T21:14:16.337Z,9.60
2023-02-17T21:16:44.380Z,9.60
2023-02-17T21:19:13.085Z,9.70
2023-02-17T21:21:41.768Z,9.60
2023-02-17T21:24:09.998Z,9.60
2023-02-17T21:26:37.976Z,9.60
2023-02-17T21:29:07.654Z,9.60
2023-02-17T21:31:36.943Z,9.60
2023-02-17T21:34:05.767Z,9.60
2023-02-17T21:36:34.017Z,9.60
2023-02-17T21:39:03.761Z,9.50
2023-02-17T21:41:32.572Z,9.50
2023-02-17T21:44:18.122Z,9.50
2023-02-17T21:46:47.647Z,9.50
2023-02-17T21:49:15.824Z,9.50
2023-02-17T21:51:43.883Z,9.40
2023-02-17T21:54:12.666Z,9.40
2023-02-17T21:56:40.702Z,9.40
2023-02-17T21:59:09.426Z,9.30
2023-02-17T22:01:37.707Z,9.20
2023-02-17T22:04:07.209Z,9.20
2023-02-17T22:06:37.067Z,9.20
2023-02-17T22:09:07.257Z,9.20
2023-02-17T22:11:37.362Z,9.10
2023-02-17T22:14:07.589Z,9.00
2023-02-17T22:16:36.811Z,9.00
2023-02-17T22:19:07.683Z,9.00
2023-02-17T22:21:35.882Z,9.00
2023-02-17T22:24:04.039Z,8.90
2023-02-17T22:26:32.432Z,8.90
2023-02-17T22:29:00.428Z,8.90
2023-02-17T22:31:31.031Z,8.90
2023-02-17T22:34:01.029Z,8.90
2023-02-17T22:36:34.540Z,8.80
2023-02-17T22:39:03.329Z,8.80
2023-02-17T22:41:31.745Z,8.80
2023-02-17T22:44:01.283Z,8.80
2023-02-17T22:46:29.298Z,8.80
2023-02-17T22:48:58.627Z,8.80
2023-02-17T22:51:28.369Z,8.70
2023-02-17T22:53:58.529Z,8.70
2023-02-17T22:56:26.596Z,8.70
2023-02-17T22:58:56.482Z,8.60
2023-02-17T23:01:25.324Z,8.60
2023-02-17T23:03:54.952Z,8.60
2023-02-17T23:06:25.299Z,8.60
2023-02-17T23:08:54.029Z,8.50
2023-02-17T23:11:39.952Z,8.50
2023-02-17T23:14:08.349Z,8.60
2023-02-17T23:16:37.147Z,8.50
2023-02-17T23:19:08.343Z,8.50
2023-02-17T23:21:36.731Z,8.50
2023-02-17T23:24:06.006Z,8.40
2023-02-17T23:26:35.462Z,8.40
2023-02-17T23:29:03.517Z,8.40
2023-02-17T23:31:31.893Z,8.30
2023-02-17T23:34:00.150Z,8.30
2023-02-17T23:36:28.197Z,8.30
2023-02-17T23:38:57.806Z,8.30
2023-02-17T23:41:26.180Z,8.20
2023-02-17T23:43:55.789Z,8.20
2023-02-17T23:46:24.405Z,8.20
2023-02-17T23:48:52.473Z,8.20
2023-02-17T23:51:20.767Z,8.20
2023-02-17T23:53:49.582Z,8.20
2023-02-17T23:56:20.468Z,8.10
2023-02-17T23:58:48.773Z,8.10
